sensor_id;sensor_type;location;lat;lon;timestamp;P1;durP1;ratioP1;P2;durP2;ratioP2
16119;SDS011;12670;53.502;10.252;2023-07-24T00:02:21;4.87;;;3.00;;
16119;SDS011;12670;53.502;10.252;2023-07-24T00:05:24;5.13;;;2.90;;
16119;SDS011;12670;53.502;10.252;2023-07-24T00:08:27;3.83;;;2.53;;
16119;SDS011;12670;53.502;10.252;2023-07-24T00:11:31;5.10;;;2.57;;
16119;SDS011;12670;53.502;10.252;2023-07-24T00:14:34;7.40;;;2.80;;
16119;SDS011;12670;53.502;10.252;2023-07-24T00:17:36;3.67;;;2.70;;
16119;SDS011;12670;53.502;10.252;2023-07-24T00:20:39;4.03;;;2.70;;
16119;SDS011;12670;53.502;10.252;2023-07-24T00:23:42;3.57;;;2.80;;
16119;SDS011;12670;53.502;10.252;2023-07-24T00:26:46;4.30;;;2.73;;
16119;SDS011;12670;53.502;10.252;2023-07-24T00:29:48;4.70;;;2.77;;
16119;SDS011;12670;53.502;10.252;2023-07-24T00:32:52;6.37;;;2.83;;
16119;SDS011;12670;53.502;10.252;2023-07-24T00:35:55;4.87;;;2.80;;
16119;SDS011;12670;53.502;10.252;2023-07-24T00:38:59;5.67;;;2.43;;
16119;SDS011;12670;53.502;10.252;2023-07-24T00:42:03;4.20;;;2.70;;
16119;SDS011;12670;53.502;10.252;2023-07-24T00:45:06;4.70;;;2.53;;
16119;SDS011;12670;53.502;10.252;2023-07-24T00:48:10;3.13;;;2.53;;
16119;SDS011;12670;53.502;10.252;2023-07-24T00:51:13;3.47;;;2.63;;
16119;SDS011;12670;53.502;10.252;2023-07-24T00:54:16;6.40;;;2.87;;
16119;SDS011;12670;53.502;10.252;2023-07-24T00:57:20;4.60;;;2.53;;
16119;SDS011;12670;53.502;10.252;2023-07-24T01:00:23;3.77;;;2.90;;
16119;SDS011;12670;53.502;10.252;2023-07-24T01:03:29;4.57;;;3.03;;
16119;SDS011;12670;53.502;10.252;2023-07-24T01:06:35;5.23;;;2.77;;
16119;SDS011;12670;53.502;10.252;2023-07-24T01:09:37;4.30;;;2.97;;
16119;SDS011;12670;53.502;10.252;2023-07-24T01:12:44;5.40;;;2.77;;
16119;SDS011;12670;53.502;10.252;2023-07-24T01:15:54;4.23;;;3.00;;
16119;SDS011;12670;53.502;10.252;2023-07-24T01:19:02;5.00;;;3.50;;
16119;SDS011;12670;53.502;10.252;2023-07-24T01:22:16;4.23;;;3.10;;
16119;SDS011;12670;53.502;10.252;2023-07-24T01:25:27;4.97;;;3.27;;
16119;SDS011;12670;53.502;10.252;2023-07-24T01:28:35;5.23;;;3.20;;
16119;SDS011;12670;53.502;10.252;2023-07-24T01:31:37;5.67;;;3.07;;
16119;SDS011;12670;53.502;10.252;2023-07-24T01:34:40;5.47;;;3.60;;
16119;SDS011;12670;53.502;10.252;2023-07-24T01:37:43;5.10;;;3.47;;
16119;SDS011;12670;53.502;10.252;2023-07-24T01:40:47;6.20;;;3.33;;
16119;SDS011;12670;53.502;10.252;2023-07-24T01:43:51;8.63;;;3.23;;
16119;SDS011;12670;53.502;10.252;2023-07-24T01:46:54;4.07;;;3.20;;
16119;SDS011;12670;53.502;10.252;2023-07-24T01:49:57;4.00;;;3.10;;
16119;SDS011;12670;53.502;10.252;2023-07-24T01:53:00;4.40;;;2.97;;
16119;SDS011;12670;53.502;10.252;2023-07-24T01:56:02;4.17;;;2.90;;
16119;SDS011;12670;53.502;10.252;2023-07-24T01:59:07;5.70;;;3.00;;
16119;SDS011;12670;53.502;10.252;2023-07-24T02:02:09;3.80;;;3.00;;
16119;SDS011;12670;53.502;10.252;2023-07-24T02:05:12;4.53;;;3.00;;
16119;SDS011;12670;53.502;10.252;2023-07-24T02:08:15;4.33;;;3.10;;
16119;SDS011;12670;53.502;10.252;2023-07-24T02:11:17;5.53;;;3.10;;
16119;SDS011;12670;53.502;10.252;2023-07-24T02:14:21;3.37;;;3.07;;
16119;SDS011;12670;53.502;10.252;2023-07-24T02:17:25;4.20;;;3.50;;
16119;SDS011;12670;53.502;10.252;2023-07-24T02:20:28;2.90;;;2.50;;
16119;SDS011;12670;53.502;10.252;2023-07-24T02:23:30;4.10;;;3.00;;
16119;SDS011;12670;53.502;10.252;2023-07-24T02:26:33;5.63;;;3.20;;
16119;SDS011;12670;53.502;10.252;2023-07-24T02:29:37;4.33;;;3.40;;
16119;SDS011;12670;53.502;10.252;2023-07-24T02:32:40;4.73;;;2.90;;
16119;SDS011;12670;53.502;10.252;2023-07-24T02:35:42;5.33;;;3.43;;
16119;SDS011;12670;53.502;10.252;2023-07-24T02:38:45;6.17;;;3.17;;
16119;SDS011;12670;53.502;10.252;2023-07-24T02:41:48;4.57;;;3.10;;
16119;SDS011;12670;53.502;10.252;2023-07-24T02:44:52;3.87;;;2.77;;
16119;SDS011;12670;53.502;10.252;2023-07-24T02:47:55;5.13;;;2.90;;
16119;SDS011;12670;53.502;10.252;2023-07-24T02:50:57;5.10;;;3.20;;
16119;SDS011;12670;53.502;10.252;2023-07-24T02:54:00;6.23;;;3.00;;
16119;SDS011;12670;53.502;10.252;2023-07-24T02:57:03;6.03;;;3.20;;
16119;SDS011;12670;53.502;10.252;2023-07-24T03:00:08;3.87;;;3.20;;
16119;SDS011;12670;53.502;10.252;2023-07-24T03:03:12;5.50;;;3.10;;
16119;SDS011;12670;53.502;10.252;2023-07-24T03:06:14;4.70;;;3.33;;
16119;SDS011;12670;53.502;10.252;2023-07-24T03:09:17;6.73;;;3.33;;
16119;SDS011;12670;53.502;10.252;2023-07-24T03:12:20;6.60;;;3.37;;
16119;SDS011;12670;53.502;10.252;2023-07-24T03:15:25;5.10;;;2.73;;
16119;SDS011;12670;53.502;10.252;2023-07-24T03:18:27;6.47;;;3.33;;
16119;SDS011;12670;53.502;10.252;2023-07-24T03:21:30;7.53;;;4.00;;
16119;SDS011;12670;53.502;10.252;2023-07-24T03:24:33;4.93;;;3.53;;
16119;SDS011;12670;53.502;10.252;2023-07-24T03:27:36;6.43;;;3.43;;
16119;SDS011;12670;53.502;10.252;2023-07-24T03:30:41;8.60;;;3.93;;
16119;SDS011;12670;53.502;10.252;2023-07-24T03:33:43;8.60;;;3.50;;
16119;SDS011;12670;53.502;10.252;2023-07-24T03:36:46;5.37;;;3.57;;
16119;SDS011;12670;53.502;10.252;2023-07-24T03:39:49;5.07;;;3.60;;
16119;SDS011;12670;53.502;10.252;2023-07-24T03:42:51;4.80;;;3.47;;
16119;SDS011;12670;53.502;10.252;2023-07-24T03:45:55;5.43;;;3.60;;
16119;SDS011;12670;53.502;10.252;2023-07-24T03:48:58;6.23;;;3.90;;
16119;SDS011;12670;53.502;10.252;2023-07-24T03:52:00;5.53;;;3.60;;
16119;SDS011;12670;53.502;10.252;2023-07-24T03:55:03;9.10;;;3.80;;
16119;SDS011;12670;53.502;10.252;2023-07-24T03:58:07;6.27;;;3.70;;
16119;SDS011;12670;53.502;10.252;2023-07-24T04:01:11;7.10;;;3.77;;
16119;SDS011;12670;53.502;10.252;2023-07-24T04:04:14;4.90;;;3.53;;
16119;SDS011;12670;53.502;10.252;2023-07-24T04:07:16;5.27;;;3.57;;
16119;SDS011;12670;53.502;10.252;2023-07-24T04:10:19;7.83;;;3.80;;
16119;SDS011;12670;53.502;10.252;2023-07-24T04:13:22;9.30;;;3.97;;
16119;SDS011;12670;53.502;10.252;2023-07-24T04:16:26;4.07;;;3.33;;
16119;SDS011;12670;53.502;10.252;2023-07-24T04:19:29;6.67;;;4.10;;
16119;SDS011;12670;53.502;10.252;2023-07-24T04:22:32;7.70;;;4.47;;
16119;SDS011;12670;53.502;10.252;2023-07-24T04:25:35;5.77;;;3.77;;
16119;SDS011;12670;53.502;10.252;2023-07-24T04:28:37;6.53;;;3.77;;
16119;SDS011;12670;53.502;10.252;2023-07-24T04:31:41;5.63;;;4.03;;
16119;SDS011;12670;53.502;10.252;2023-07-24T04:34:44;7.13;;;3.93;;
16119;SDS011;12670;53.502;10.252;2023-07-24T04:37:47;5.20;;;3.80;;
16119;SDS011;12670;53.502;10.252;2023-07-24T04:40:49;7.57;;;3.97;;
16119;SDS011;12670;53.502;10.252;2023-07-24T04:43:52;10.07;;;4.67;;
16119;SDS011;12670;53.502;10.252;2023-07-24T04:46:56;8.33;;;4.33;;
16119;SDS011;12670;53.502;10.252;2023-07-24T04:49:59;6.73;;;3.93;;
16119;SDS011;12670;53.502;10.252;2023-07-24T04:53:01;6.20;;;3.73;;
16119;SDS011;12670;53.502;10.252;2023-07-24T04:56:04;5.10;;;3.80;;
16119;SDS011;12670;53.502;10.252;2023-07-24T04:59:07;5.83;;;4.23;;
16119;SDS011;12670;53.502;10.252;2023-07-24T05:02:11;6.40;;;4.20;;
16119;SDS011;12670;53.502;10.252;2023-07-24T05:05:14;5.73;;;4.13;;
16119;SDS011;12670;53.502;10.252;2023-07-24T05:08:16;5.13;;;3.80;;
16119;SDS011;12670;53.502;10.252;2023-07-24T05:11:19;5.80;;;4.33;;
16119;SDS011;12670;53.502;10.252;2023-07-24T05:14:22;5.70;;;3.90;;
16119;SDS011;12670;53.502;10.252;2023-07-24T05:17:26;6.00;;;3.80;;
16119;SDS011;12670;53.502;10.252;2023-07-24T05:20:28;5.00;;;3.83;;
16119;SDS011;12670;53.502;10.252;2023-07-24T05:23:31;8.87;;;4.17;;
16119;SDS011;12670;53.502;10.252;2023-07-24T05:26:34;7.60;;;4.53;;
16119;SDS011;12670;53.502;10.252;2023-07-24T05:29:36;6.40;;;4.43;;
16119;SDS011;12670;53.502;10.252;2023-07-24T05:32:40;6.53;;;4.27;;
16119;SDS011;12670;53.502;10.252;2023-07-24T05:35:43;5.83;;;3.60;;
16119;SDS011;12670;53.502;10.252;2023-07-24T05:38:46;5.67;;;3.90;;
16119;SDS011;12670;53.502;10.252;2023-07-24T05:41:48;5.93;;;3.63;;
16119;SDS011;12670;53.502;10.252;2023-07-24T05:44:51;8.27;;;3.87;;
16119;SDS011;12670;53.502;10.252;2023-07-24T05:47:55;5.97;;;3.57;;
16119;SDS011;12670;53.502;10.252;2023-07-24T05:50:58;4.97;;;3.37;;
16119;SDS011;12670;53.502;10.252;2023-07-24T05:54:00;4.50;;;3.40;;
16119;SDS011;12670;53.502;10.252;2023-07-24T05:57:03;5.73;;;3.40;;
16119;SDS011;12670;53.502;10.252;2023-07-24T06:00:06;4.97;;;3.00;;
16119;SDS011;12670;53.502;10.252;2023-07-24T06:03:11;5.00;;;3.10;;
16119;SDS011;12670;53.502;10.252;2023-07-24T06:06:14;5.40;;;3.40;;
16119;SDS011;12670;53.502;10.252;2023-07-24T06:09:16;7.00;;;3.50;;
16119;SDS011;12670;53.502;10.252;2023-07-24T06:12:22;6.50;;;3.53;;
16119;SDS011;12670;53.502;10.252;2023-07-24T06:15:25;4.33;;;2.90;;
16119;SDS011;12670;53.502;10.252;2023-07-24T06:18:29;4.23;;;3.17;;
16119;SDS011;12670;53.502;10.252;2023-07-24T06:21:31;4.57;;;3.13;;
16119;SDS011;12670;53.502;10.252;2023-07-24T06:24:34;4.10;;;3.10;;
16119;SDS011;12670;53.502;10.252;2023-07-24T06:27:37;6.67;;;3.10;;
16119;SDS011;12670;53.502;10.252;2023-07-24T06:30:39;3.30;;;2.73;;
16119;SDS011;12670;53.502;10.252;2023-07-24T06:33:43;5.07;;;2.93;;
16119;SDS011;12670;53.502;10.252;2023-07-24T06:36:46;7.63;;;2.90;;
16119;SDS011;12670;53.502;10.252;2023-07-24T06:39:49;4.30;;;3.03;;
16119;SDS011;12670;53.502;10.252;2023-07-24T06:42:51;6.53;;;3.20;;
16119;SDS011;12670;53.502;10.252;2023-07-24T06:45:54;5.97;;;3.03;;
16119;SDS011;12670;53.502;10.252;2023-07-24T06:48:58;4.20;;;3.00;;
16119;SDS011;12670;53.502;10.252;2023-07-24T06:52:01;5.07;;;3.33;;
16119;SDS011;12670;53.502;10.252;2023-07-24T06:55:04;3.30;;;2.80;;
16119;SDS011;12670;53.502;10.252;2023-07-24T06:58:07;4.45;;;3.10;;
16119;SDS011;12670;53.502;10.252;2023-07-24T07:01:10;5.77;;;3.60;;
16119;SDS011;12670;53.502;10.252;2023-07-24T07:04:14;4.53;;;2.97;;
16119;SDS011;12670;53.502;10.252;2023-07-24T07:07:17;4.40;;;2.90;;
16119;SDS011;12670;53.502;10.252;2023-07-24T07:10:19;3.53;;;3.00;;
16119;SDS011;12670;53.502;10.252;2023-07-24T07:13:22;3.97;;;3.07;;
16119;SDS011;12670;53.502;10.252;2023-07-24T07:16:24;3.60;;;2.50;;
16119;SDS011;12670;53.502;10.252;2023-07-24T07:19:28;4.43;;;2.80;;
16119;SDS011;12670;53.502;10.252;2023-07-24T07:22:31;3.27;;;2.77;;
16119;SDS011;12670;53.502;10.252;2023-07-24T07:25:34;3.93;;;2.80;;
16119;SDS011;12670;53.502;10.252;2023-07-24T07:28:36;3.08;;;2.40;;
16119;SDS011;12670;53.502;10.252;2023-07-24T07:31:39;3.72;;;2.38;;
16119;SDS011;12670;53.502;10.252;2023-07-24T07:34:44;5.57;;;2.55;;
16119;SDS011;12670;53.502;10.252;2023-07-24T07:37:46;3.70;;;2.65;;
16119;SDS011;12670;53.502;10.252;2023-07-24T07:40:49;4.00;;;3.03;;
16119;SDS011;12670;53.502;10.252;2023-07-24T07:43:52;5.65;;;2.75;;
16119;SDS011;12670;53.502;10.252;2023-07-24T07:46:54;4.28;;;2.60;;
16119;SDS011;12670;53.502;10.252;2023-07-24T07:49:58;6.10;;;2.97;;
16119;SDS011;12670;53.502;10.252;2023-07-24T07:53:01;6.35;;;3.00;;
16119;SDS011;12670;53.502;10.252;2023-07-24T07:56:04;3.60;;;3.00;;
16119;SDS011;12670;53.502;10.252;2023-07-24T07:59:07;4.22;;;2.90;;
16119;SDS011;12670;53.502;10.252;2023-07-24T08:02:09;4.60;;;2.92;;
16119;SDS011;12670;53.502;10.252;2023-07-24T08:05:13;2.92;;;2.35;;
16119;SDS011;12670;53.502;10.252;2023-07-24T08:08:21;2.83;;;2.53;;
16119;SDS011;12670;53.502;10.252;2023-07-24T08:11:24;3.40;;;2.70;;
16119;SDS011;12670;53.502;10.252;2023-07-24T08:14:27;4.30;;;2.90;;
16119;SDS011;12670;53.502;10.252;2023-07-24T08:17:29;3.70;;;2.92;;
16119;SDS011;12670;53.502;10.252;2023-07-24T08:20:34;3.40;;;2.53;;
16119;SDS011;12670;53.502;10.252;2023-07-24T08:23:38;4.13;;;2.45;;
16119;SDS011;12670;53.502;10.252;2023-07-24T08:26:40;3.95;;;2.90;;
16119;SDS011;12670;53.502;10.252;2023-07-24T08:29:43;4.28;;;3.13;;
16119;SDS011;12670;53.502;10.252;2023-07-24T08:32:46;5.47;;;3.20;;
16119;SDS011;12670;53.502;10.252;2023-07-24T08:36:00;5.47;;;3.30;;
16119;SDS011;12670;53.502;10.252;2023-07-24T08:39:03;5.45;;;3.63;;
16119;SDS011;12670;53.502;10.252;2023-07-24T08:42:09;5.18;;;3.50;;
16119;SDS011;12670;53.502;10.252;2023-07-24T08:45:12;5.30;;;3.47;;
16119;SDS011;12670;53.502;10.252;2023-07-24T08:48:16;4.85;;;4.00;;
16119;SDS011;12670;53.502;10.252;2023-07-24T08:51:22;4.60;;;3.95;;
16119;SDS011;12670;53.502;10.252;2023-07-24T08:54:26;5.93;;;4.43;;
16119;SDS011;12670;53.502;10.252;2023-07-24T08:57:29;6.10;;;3.97;;
16119;SDS011;12670;53.502;10.252;2023-07-24T09:00:32;5.45;;;4.40;;
16119;SDS011;12670;53.502;10.252;2023-07-24T09:03:35;7.30;;;4.50;;
16119;SDS011;12670;53.502;10.252;2023-07-24T09:06:40;4.63;;;3.67;;
16119;SDS011;12670;53.502;10.252;2023-07-24T09:09:42;5.82;;;4.50;;
16119;SDS011;12670;53.502;10.252;2023-07-24T09:12:45;5.78;;;4.47;;
16119;SDS011;12670;53.502;10.252;2023-07-24T09:15:48;7.20;;;4.43;;
16119;SDS011;12670;53.502;10.252;2023-07-24T09:18:51;5.30;;;4.38;;
16119;SDS011;12670;53.502;10.252;2023-07-24T09:22:08;5.70;;;3.92;;
16119;SDS011;12670;53.502;10.252;2023-07-24T09:25:11;8.05;;;4.72;;
16119;SDS011;12670;53.502;10.252;2023-07-24T09:28:15;6.03;;;3.90;;
16119;SDS011;12670;53.502;10.252;2023-07-24T09:31:18;4.50;;;4.00;;
16119;SDS011;12670;53.502;10.252;2023-07-24T09:34:21;4.88;;;4.00;;
16119;SDS011;12670;53.502;10.252;2023-07-24T09:37:26;4.55;;;3.70;;
16119;SDS011;12670;53.502;10.252;2023-07-24T09:40:36;7.00;;;4.85;;
16119;SDS011;12670;53.502;10.252;2023-07-24T09:43:41;5.88;;;4.25;;
16119;SDS011;12670;53.502;10.252;2023-07-24T09:46:44;6.97;;;4.40;;
16119;SDS011;12670;53.502;10.252;2023-07-24T09:50:08;6.30;;;4.45;;
16119;SDS011;12670;53.502;10.252;2023-07-24T09:53:14;8.05;;;4.50;;
16119;SDS011;12670;53.502;10.252;2023-07-24T09:56:20;7.88;;;4.68;;
16119;SDS011;12670;53.502;10.252;2023-07-24T09:59:43;6.15;;;4.28;;
16119;SDS011;12670;53.502;10.252;2023-07-24T10:02:47;6.22;;;4.00;;
16119;SDS011;12670;53.502;10.252;2023-07-24T10:05:50;6.53;;;3.90;;
16119;SDS011;12670;53.502;10.252;2023-07-24T10:08:57;5.43;;;3.80;;
16119;SDS011;12670;53.502;10.252;2023-07-24T10:12:00;7.65;;;5.05;;
16119;SDS011;12670;53.502;10.252;2023-07-24T10:15:05;5.70;;;4.70;;
16119;SDS011;12670;53.502;10.252;2023-07-24T10:18:09;9.13;;;4.65;;
16119;SDS011;12670;53.502;10.252;2023-07-24T10:21:12;6.15;;;4.88;;
16119;SDS011;12670;53.502;10.252;2023-07-24T10:24:17;5.70;;;4.43;;
16119;SDS011;12670;53.502;10.252;2023-07-24T10:27:41;6.18;;;4.97;;
16119;SDS011;12670;53.502;10.252;2023-07-24T10:30:54;7.05;;;4.65;;
16119;SDS011;12670;53.502;10.252;2023-07-24T10:34:03;6.68;;;4.75;;
16119;SDS011;12670;53.502;10.252;2023-07-24T10:37:07;5.88;;;4.60;;
16119;SDS011;12670;53.502;10.252;2023-07-24T10:40:20;6.85;;;4.85;;
16119;SDS011;12670;53.502;10.252;2023-07-24T10:43:23;5.45;;;4.70;;
16119;SDS011;12670;53.502;10.252;2023-07-24T10:46:34;6.03;;;4.45;;
16119;SDS011;12670;53.502;10.252;2023-07-24T10:49:42;6.07;;;4.40;;
16119;SDS011;12670;53.502;10.252;2023-07-24T10:52:45;5.50;;;4.75;;
16119;SDS011;12670;53.502;10.252;2023-07-24T10:55:51;5.72;;;4.72;;
16119;SDS011;12670;53.502;10.252;2023-07-24T10:58:54;5.97;;;4.70;;
16119;SDS011;12670;53.502;10.252;2023-07-24T11:01:56;8.07;;;5.40;;
16119;SDS011;12670;53.502;10.252;2023-07-24T11:05:01;5.97;;;4.50;;
16119;SDS011;12670;53.502;10.252;2023-07-24T11:08:08;5.72;;;4.38;;
16119;SDS011;12670;53.502;10.252;2023-07-24T11:11:16;4.70;;;4.13;;
16119;SDS011;12670;53.502;10.252;2023-07-24T11:14:19;5.05;;;4.03;;
16119;SDS011;12670;53.502;10.252;2023-07-24T11:17:22;6.57;;;3.88;;
16119;SDS011;12670;53.502;10.252;2023-07-24T11:20:36;4.43;;;3.85;;
16119;SDS011;12670;53.502;10.252;2023-07-24T11:23:44;4.50;;;3.30;;
16119;SDS011;12670;53.502;10.252;2023-07-24T11:26:50;3.80;;;3.33;;
16119;SDS011;12670;53.502;10.252;2023-07-24T11:29:54;6.00;;;4.47;;
16119;SDS011;12670;53.502;10.252;2023-07-24T11:32:57;5.38;;;4.47;;
16119;SDS011;12670;53.502;10.252;2023-07-24T11:36:02;4.43;;;3.95;;
16119;SDS011;12670;53.502;10.252;2023-07-24T11:39:05;4.38;;;3.97;;
16119;SDS011;12670;53.502;10.252;2023-07-24T11:42:09;5.40;;;4.45;;
16119;SDS011;12670;53.502;10.252;2023-07-24T11:45:12;4.95;;;4.40;;
16119;SDS011;12670;53.502;10.252;2023-07-24T11:48:14;6.22;;;4.30;;
16119;SDS011;12670;53.502;10.252;2023-07-24T11:51:17;4.55;;;3.80;;
16119;SDS011;12670;53.502;10.252;2023-07-24T11:54:20;6.05;;;3.95;;
16119;SDS011;12670;53.502;10.252;2023-07-24T11:57:24;5.20;;;4.50;;
16119;SDS011;12670;53.502;10.252;2023-07-24T12:00:27;6.00;;;4.78;;
16119;SDS011;12670;53.502;10.252;2023-07-24T12:03:30;5.82;;;4.70;;
16119;SDS011;12670;53.502;10.252;2023-07-24T12:06:33;6.25;;;4.55;;
16119;SDS011;12670;53.502;10.252;2023-07-24T12:09:35;6.07;;;5.30;;
16119;SDS011;12670;53.502;10.252;2023-07-24T12:12:42;5.45;;;4.95;;
16119;SDS011;12670;53.502;10.252;2023-07-24T12:15:47;4.18;;;3.75;;
16119;SDS011;12670;53.502;10.252;2023-07-24T12:18:50;5.50;;;3.63;;
16119;SDS011;12670;53.502;10.252;2023-07-24T12:21:53;5.00;;;3.38;;
16119;SDS011;12670;53.502;10.252;2023-07-24T12:24:56;4.53;;;3.63;;
16119;SDS011;12670;53.502;10.252;2023-07-24T12:28:00;6.03;;;3.50;;
16119;SDS011;12670;53.502;10.252;2023-07-24T12:31:02;4.13;;;3.40;;
16119;SDS011;12670;53.502;10.252;2023-07-24T12:34:05;3.70;;;3.30;;
16119;SDS011;12670;53.502;10.252;2023-07-24T12:37:08;3.85;;;3.10;;
16119;SDS011;12670;53.502;10.252;2023-07-24T12:40:11;5.50;;;3.08;;
16119;SDS011;12670;53.502;10.252;2023-07-24T12:43:15;3.10;;;2.63;;
16119;SDS011;12670;53.502;10.252;2023-07-24T12:46:18;3.25;;;2.85;;
16119;SDS011;12670;53.502;10.252;2023-07-24T12:49:21;3.97;;;2.80;;
16119;SDS011;12670;53.502;10.252;2023-07-24T12:52:24;3.38;;;2.80;;
16119;SDS011;12670;53.502;10.252;2023-07-24T12:55:26;3.10;;;2.50;;
16119;SDS011;12670;53.502;10.252;2023-07-24T12:58:32;5.25;;;2.75;;
16119;SDS011;12670;53.502;10.252;2023-07-24T13:01:34;3.22;;;2.67;;
16119;SDS011;12670;53.502;10.252;2023-07-24T13:04:37;3.22;;;2.72;;
16119;SDS011;12670;53.502;10.252;2023-07-24T13:07:40;3.75;;;2.50;;
16119;SDS011;12670;53.502;10.252;2023-07-24T13:10:43;3.85;;;2.60;;
16119;SDS011;12670;53.502;10.252;2023-07-24T13:13:47;2.38;;;2.15;;
16119;SDS011;12670;53.502;10.252;2023-07-24T13:16:51;3.05;;;2.30;;
16119;SDS011;12670;53.502;10.252;2023-07-24T13:19:54;3.75;;;2.42;;
16119;SDS011;12670;53.502;10.252;2023-07-24T13:22:56;3.80;;;2.47;;
16119;SDS011;12670;53.502;10.252;2023-07-24T13:25:59;5.20;;;2.90;;
16119;SDS011;12670;53.502;10.252;2023-07-24T13:29:03;4.35;;;3.03;;
16119;SDS011;12670;53.502;10.252;2023-07-24T13:32:06;2.88;;;2.55;;
16119;SDS011;12670;53.502;10.252;2023-07-24T13:35:10;3.00;;;2.70;;
16119;SDS011;12670;53.502;10.252;2023-07-24T13:38:12;3.45;;;2.97;;
16119;SDS011;12670;53.502;10.252;2023-07-24T13:41:15;6.93;;;2.60;;
16119;SDS011;12670;53.502;10.252;2023-07-24T13:44:20;4.63;;;2.72;;
16119;SDS011;12670;53.502;10.252;2023-07-24T13:47:22;3.30;;;2.45;;
16119;SDS011;12670;53.502;10.252;2023-07-24T13:50:25;4.03;;;2.70;;
16119;SDS011;12670;53.502;10.252;2023-07-24T13:53:28;2.67;;;2.40;;
16119;SDS011;12670;53.502;10.252;2023-07-24T13:56:30;6.18;;;2.88;;
16119;SDS011;12670;53.502;10.252;2023-07-24T13:59:37;5.25;;;2.70;;
16119;SDS011;12670;53.502;10.252;2023-07-24T14:02:40;2.85;;;2.50;;
16119;SDS011;12670;53.502;10.252;2023-07-24T14:05:43;5.47;;;3.00;;
16119;SDS011;12670;53.502;10.252;2023-07-24T14:08:46;3.85;;;3.00;;
16119;SDS011;12670;53.502;10.252;2023-07-24T14:11:48;3.90;;;2.90;;
16119;SDS011;12670;53.502;10.252;2023-07-24T14:14:52;7.30;;;3.65;;
16119;SDS011;12670;53.502;10.252;2023-07-24T14:17:55;3.60;;;2.88;;
16119;SDS011;12670;53.502;10.252;2023-07-24T14:20:58;4.28;;;2.75;;
16119;SDS011;12670;53.502;10.252;2023-07-24T14:24:01;5.28;;;3.00;;
16119;SDS011;12670;53.502;10.252;2023-07-24T14:27:03;3.58;;;2.80;;
16119;SDS011;12670;53.502;10.252;2023-07-24T14:30:09;4.25;;;2.78;;
16119;SDS011;12670;53.502;10.252;2023-07-24T14:33:12;3.70;;;2.67;;
16119;SDS011;12670;53.502;10.252;2023-07-24T14:36:15;3.83;;;3.05;;
16119;SDS011;12670;53.502;10.252;2023-07-24T14:39:18;5.78;;;3.20;;
16119;SDS011;12670;53.502;10.252;2023-07-24T14:42:20;4.40;;;3.30;;
16119;SDS011;12670;53.502;10.252;2023-07-24T14:45:24;4.80;;;3.33;;
16119;SDS011;12670;53.502;10.252;2023-07-24T14:48:27;3.70;;;3.30;;
16119;SDS011;12670;53.502;10.252;2023-07-24T14:51:33;4.93;;;3.60;;
16119;SDS011;12670;53.502;10.252;2023-07-24T14:54:35;7.18;;;3.50;;
16119;SDS011;12670;53.502;10.252;2023-07-24T14:57:40;3.78;;;3.20;;
16119;SDS011;12670;53.502;10.252;2023-07-24T15:00:44;4.93;;;3.30;;
16119;SDS011;12670;53.502;10.252;2023-07-24T15:03:48;4.00;;;3.10;;
16119;SDS011;12670;53.502;10.252;2023-07-24T15:06:50;4.07;;;3.30;;
16119;SDS011;12670;53.502;10.252;2023-07-24T15:09:53;5.10;;;3.60;;
16119;SDS011;12670;53.502;10.252;2023-07-24T15:12:56;5.45;;;3.42;;
16119;SDS011;12670;53.502;10.252;2023-07-24T15:16:00;4.30;;;3.75;;
16119;SDS011;12670;53.502;10.252;2023-07-24T15:19:03;4.70;;;3.70;;
16119;SDS011;12670;53.502;10.252;2023-07-24T15:22:06;5.35;;;3.63;;
16119;SDS011;12670;53.502;10.252;2023-07-24T15:25:08;5.70;;;4.07;;
16119;SDS011;12670;53.502;10.252;2023-07-24T15:28:12;5.70;;;4.20;;
16119;SDS011;12670;53.502;10.252;2023-07-24T15:31:16;9.60;;;4.10;;
16119;SDS011;12670;53.502;10.252;2023-07-24T15:34:19;7.78;;;4.25;;
16119;SDS011;12670;53.502;10.252;2023-07-24T15:37:21;6.05;;;3.97;;
16119;SDS011;12670;53.502;10.252;2023-07-24T15:40:25;4.40;;;3.83;;
16119;SDS011;12670;53.502;10.252;2023-07-24T15:50:03;5.35;;;3.90;;
16119;SDS011;12670;53.502;10.252;2023-07-24T15:53:06;7.20;;;4.25;;
16119;SDS011;12670;53.502;10.252;2023-07-24T15:56:08;8.80;;;4.10;;
16119;SDS011;12670;53.502;10.252;2023-07-24T15:59:13;6.07;;;3.78;;
16119;SDS011;12670;53.502;10.252;2023-07-24T16:02:15;4.22;;;3.58;;
16119;SDS011;12670;53.502;10.252;2023-07-24T16:05:20;3.42;;;2.63;;
16119;SDS011;12670;53.502;10.252;2023-07-24T16:08:24;4.00;;;2.20;;
16119;SDS011;12670;53.502;10.252;2023-07-24T16:11:26;3.55;;;2.45;;
16119;SDS011;12670;53.502;10.252;2023-07-24T16:14:30;3.10;;;2.00;;
16119;SDS011;12670;53.502;10.252;2023-07-24T16:17:33;6.57;;;4.55;;
16119;SDS011;12670;53.502;10.252;2023-07-24T16:20:37;3.55;;;2.70;;
16119;SDS011;12670;53.502;10.252;2023-07-24T16:23:41;7.50;;;3.88;;
16119;SDS011;12670;53.502;10.252;2023-07-24T16:26:44;3.22;;;2.40;;
16119;SDS011;12670;53.502;10.252;2023-07-24T16:29:48;5.35;;;2.40;;
16119;SDS011;12670;53.502;10.252;2023-07-24T16:42:40;5.70;;;2.40;;
16119;SDS011;12670;53.502;10.252;2023-07-24T16:45:46;6.78;;;2.50;;
16119;SDS011;12670;53.502;10.252;2023-07-24T16:48:55;7.00;;;2.60;;
16119;SDS011;12670;53.502;10.252;2023-07-24T16:51:57;4.10;;;2.50;;
16119;SDS011;12670;53.502;10.252;2023-07-24T16:55:04;4.75;;;2.88;;
16119;SDS011;12670;53.502;10.252;2023-07-24T16:58:09;3.88;;;2.40;;
16119;SDS011;12670;53.502;10.252;2023-07-24T17:01:11;4.43;;;2.90;;
16119;SDS011;12670;53.502;10.252;2023-07-24T17:04:14;5.22;;;2.67;;
16119;SDS011;12670;53.502;10.252;2023-07-24T17:07:17;5.18;;;2.78;;
16119;SDS011;12670;53.502;10.252;2023-07-24T17:10:19;5.73;;;3.17;;
16119;SDS011;12670;53.502;10.252;2023-07-24T17:13:24;5.70;;;3.20;;
16119;SDS011;12670;53.502;10.252;2023-07-24T17:16:26;5.20;;;2.93;;
16119;SDS011;12670;53.502;10.252;2023-07-24T17:19:31;6.17;;;3.20;;
16119;SDS011;12670;53.502;10.252;2023-07-24T17:22:33;6.40;;;3.63;;
16119;SDS011;12670;53.502;10.252;2023-07-24T17:25:37;4.93;;;2.90;;
16119;SDS011;12670;53.502;10.252;2023-07-24T17:28:42;6.73;;;3.30;;
16119;SDS011;12670;53.502;10.252;2023-07-24T17:31:45;7.40;;;3.07;;
16119;SDS011;12670;53.502;10.252;2023-07-24T17:34:48;4.43;;;2.80;;
16119;SDS011;12670;53.502;10.252;2023-07-24T17:37:50;8.07;;;3.13;;
16119;SDS011;12670;53.502;10.252;2023-07-24T17:40:53;4.70;;;2.90;;
16119;SDS011;12670;53.502;10.252;2023-07-24T17:43:58;6.43;;;3.10;;
16119;SDS011;12670;53.502;10.252;2023-07-24T17:47:00;9.10;;;3.70;;
16119;SDS011;12670;53.502;10.252;2023-07-24T17:50:04;9.17;;;4.10;;
16119;SDS011;12670;53.502;10.252;2023-07-24T17:53:09;7.37;;;4.00;;
16119;SDS011;12670;53.502;10.252;2023-07-24T17:56:11;8.43;;;3.93;;
16119;SDS011;12670;53.502;10.252;2023-07-24T17:59:15;7.43;;;3.90;;
16119;SDS011;12670;53.502;10.252;2023-07-24T18:02:18;10.30;;;4.07;;
16119;SDS011;12670;53.502;10.252;2023-07-24T18:05:21;7.37;;;3.53;;
16119;SDS011;12670;53.502;10.252;2023-07-24T18:08:23;7.30;;;3.73;;
16119;SDS011;12670;53.502;10.252;2023-07-24T18:11:26;7.57;;;3.60;;
16119;SDS011;12670;53.502;10.252;2023-07-24T18:14:31;7.73;;;3.40;;
16119;SDS011;12670;53.502;10.252;2023-07-24T18:17:33;7.23;;;3.60;;
16119;SDS011;12670;53.502;10.252;2023-07-24T18:20:36;9.50;;;3.53;;
16119;SDS011;12670;53.502;10.252;2023-07-24T18:23:38;10.67;;;3.93;;
16119;SDS011;12670;53.502;10.252;2023-07-24T18:26:41;9.70;;;3.47;;